• Join FlightAware (Why Join?)
  • Login
  • US Flag 
10:36PM EDT


 

Airport Tracker/Info


-or-


 

Live Flight TrackerFlight Track Log ✈ SKW5516 ✈ 12-Jun-2013 ✈ KFAT - KLAX

Flight Track Log - Related Links

Times and Time Zones

All times are in EDT time to prevent confusion due to time zone crossing. See the SKW5516 flight status page for this flight to view local times or setup timezone preferences in your user account.

Time Position Orientation Groundspeed Altitude Reporting Facility
EDT Latitude Longitude Course Direction KTS MPH feet Rate Location/Type
05:49PM 36.5508 -119.6106 159° South  Level Estimated
05:50PM 36.4943 -119.5837 159° South  Level Estimated
05:51PM 36.4379 -119.5568 159° South  Level Estimated
05:52PM 36.3815 -119.5299 159° South  Level Estimated
05:53PM 36.3250 -119.5031 159° South  Level Estimated
05:54PM 36.2686 -119.4764 159° South  Level Estimated
05:55PM 36.2121 -119.4497 159° South  Level Estimated
05:56PM 36.1556 -119.4230 159° South  Level Estimated
05:57PM 36.0992 -119.3963 159° South  Level Estimated
05:58PM 36.0427 -119.3697 159° South  Level Estimated
05:59PM 35.9862 -119.3431 159° South  Level Estimated
06:00PM 35.9297 -119.3166 159° South  Level Estimated
06:01PM 35.8732 -119.2901 159° South  Level Estimated
06:02PM 35.8167 -119.2637 159° South  Level Estimated
06:03PM 35.7602 -119.2373 159° South  Level Estimated
06:04PM 35.7037 -119.2109 159° South  Level Estimated
06:05PM 35.6472 -119.1845 159° South  Level Estimated
06:06PM 35.5907 -119.1582 159° South  Level Estimated
06:07PM 35.5341 -119.1320 159° South  Level Estimated
06:08PM 35.4776 -119.1057 159° South  Level Estimated
06:09PM 35.4211 -119.0795 159° South  Level Estimated
06:10PM 35.3645 -119.0534 159° South  Level Estimated
06:11PM 35.3080 -119.0273 159° South  Level Estimated
06:12PM 35.2514 -119.0012 159° South  Level Estimated
06:13PM 35.1948 -118.9751 159° South  Level Estimated
06:14PM 35.1383 -118.9491 159° South  Level Estimated
06:15PM 35.0817 -118.9231 159° South  Level Estimated
06:16PM 35.0251 -118.8972 159° South  Level Estimated
06:17PM 34.9685 -118.8713 159° South  Level Estimated
06:18PM 34.9119 -118.8454 159° South  Level Estimated
06:19PM 34.8554 -118.8196 159° South  Level Estimated
06:20PM 34.7988 -118.7938 159° South  Level Estimated
06:21PM 34.7421 -118.7680 159° South  Level Estimated
06:22PM 34.6855 -118.7423 160° South  Level Estimated
06:23PM 34.6289 -118.7166 160° South  Level Estimated
06:24PM 34.5723 -118.6909 160° South  Level Estimated
06:25PM 34.5157 -118.6653 160° South  Level Estimated
06:26PM 34.4590 -118.6397 160° South  Level Estimated
06:27PM 34.4024 -118.6142 160° South  Level Estimated
06:28PM 34.3457 -118.5887 160° South  Level Estimated
06:29PM 34.2891 -118.5632 160° South  Level Estimated
06:30PM 34.2324 -118.5377 160° South  Level Estimated
06:31PM 34.1758 -118.5123 160° South  Level Estimated
06:32PM 34.1191 -118.4870 160° South  Level Estimated
06:33PM 34.0625 -118.4616 160° South  Level Estimated
06:34PM 34.0058 -118.4363 160° South  Level Estimated
06:35PM 33.9491 -118.4110 160° South  Level Estimated
06:36PM 33.9425 -118.4081 160° South  Level Estimated
06:37PM 33.9425 -118.4081 164° South  Level Estimated
06:38PM 33.9425 -118.4081 164° South  Level Estimated
06:39PM 33.9425 -118.4081 164° South  Level Estimated
06:40PM 33.9425 -118.4081 164° South  Level Estimated
06:41PM 33.9425 -118.4081 164° South  Level Estimated
06:42PM 33.9425 -118.4081 164° South  Level Estimated
06:43PM 33.9425 -118.4081 164° South  Level Estimated
06:44PM 33.9425 -118.4081 164° South  Level Estimated
06:45PM 33.9425 -118.4081 164° South  Level Estimated
06:46PM 33.9425 -118.4081 164° South  Level Estimated
06:47PM 33.9425 -118.4081 164° South  Level Estimated
06:48PM 33.9425 -118.4081 164° South  Level Estimated
06:49PM 33.9425 -118.4081 164° South  Level Estimated
06:50PM 33.9425 -118.4081 164° South  Level Estimated
06:51PM 33.9425 -118.4081 164° South  Level Estimated